sensor_id;sensor_type;location;lat;lon;timestamp;P1;durP1;ratioP1;P2;durP2;ratioP2
21843;SDS011;11084;52.482;9.108;2023-01-01T00:00:14;7.40;;;3.40;;
21843;SDS011;11084;52.482;9.108;2023-01-01T00:02:40;10.53;;;3.87;;
21843;SDS011;11084;52.482;9.108;2023-01-01T00:05:07;13.93;;;4.50;;
21843;SDS011;11084;52.482;9.108;2023-01-01T00:07:33;16.00;;;4.63;;
21843;SDS011;11084;52.482;9.108;2023-01-01T00:10:02;18.60;;;4.00;;
21843;SDS011;11084;52.482;9.108;2023-01-01T00:12:50;7.97;;;3.60;;
21843;SDS011;11084;52.482;9.108;2023-01-01T00:15:16;6.13;;;3.30;;
21843;SDS011;11084;52.482;9.108;2023-01-01T00:17:45;6.27;;;3.23;;
21843;SDS011;11084;52.482;9.108;2023-01-01T00:20:11;8.33;;;3.27;;
21843;SDS011;11084;52.482;9.108;2023-01-01T00:22:37;9.07;;;3.70;;
21843;SDS011;11084;52.482;9.108;2023-01-01T00:25:04;10.87;;;3.43;;
21843;SDS011;11084;52.482;9.108;2023-01-01T00:27:30;10.97;;;3.27;;
21843;SDS011;11084;52.482;9.108;2023-01-01T00:29:57;8.37;;;3.03;;
21843;SDS011;11084;52.482;9.108;2023-01-01T00:32:23;6.23;;;2.53;;
21843;SDS011;11084;52.482;9.108;2023-01-01T00:34:49;10.97;;;3.10;;
21843;SDS011;11084;52.482;9.108;2023-01-01T00:37:16;8.60;;;2.87;;
21843;SDS011;11084;52.482;9.108;2023-01-01T00:39:42;9.73;;;3.63;;
21843;SDS011;11084;52.482;9.108;2023-01-01T00:42:09;14.23;;;3.57;;
21843;SDS011;11084;52.482;9.108;2023-01-01T00:44:35;4.13;;;2.80;;
21843;SDS011;11084;52.482;9.108;2023-01-01T00:47:01;8.93;;;2.77;;
21843;SDS011;11084;52.482;9.108;2023-01-01T00:49:29;15.27;;;3.40;;
21843;SDS011;11084;52.482;9.108;2023-01-01T00:51:56;6.60;;;2.40;;
21843;SDS011;11084;52.482;9.108;2023-01-01T00:54:23;11.53;;;3.13;;
21843;SDS011;11084;52.482;9.108;2023-01-01T00:56:49;10.77;;;3.20;;
21843;SDS011;11084;52.482;9.108;2023-01-01T00:59:14;13.83;;;3.33;;
21843;SDS011;11084;52.482;9.108;2023-01-01T01:01:40;11.10;;;3.30;;
21843;SDS011;11084;52.482;9.108;2023-01-01T01:04:09;11.47;;;3.10;;
21843;SDS011;11084;52.482;9.108;2023-01-01T01:06:35;12.47;;;3.70;;
21843;SDS011;11084;52.482;9.108;2023-01-01T01:09:01;6.33;;;2.90;;
21843;SDS011;11084;52.482;9.108;2023-01-01T01:11:28;11.93;;;2.77;;
21843;SDS011;11084;52.482;9.108;2023-01-01T01:13:55;17.37;;;3.63;;
21843;SDS011;11084;52.482;9.108;2023-01-01T01:18:54;12.60;;;3.60;;
21843;SDS011;11084;52.482;9.108;2023-01-01T01:21:23;11.30;;;3.77;;
21843;SDS011;11084;52.482;9.108;2023-01-01T01:23:51;10.57;;;3.83;;
21843;SDS011;11084;52.482;9.108;2023-01-01T01:26:21;10.10;;;3.30;;
21843;SDS011;11084;52.482;9.108;2023-01-01T01:28:53;9.53;;;3.73;;
21843;SDS011;11084;52.482;9.108;2023-01-01T01:31:21;13.13;;;3.63;;
21843;SDS011;11084;52.482;9.108;2023-01-01T01:33:49;10.10;;;3.57;;
21843;SDS011;11084;52.482;9.108;2023-01-01T01:36:16;10.27;;;3.10;;
21843;SDS011;11084;52.482;9.108;2023-01-01T01:38:43;18.00;;;4.37;;
21843;SDS011;11084;52.482;9.108;2023-01-01T01:41:13;16.17;;;4.30;;
21843;SDS011;11084;52.482;9.108;2023-01-01T01:46:15;13.53;;;4.87;;
21843;SDS011;11084;52.482;9.108;2023-01-01T01:49:04;14.90;;;4.53;;
21843;SDS011;11084;52.482;9.108;2023-01-01T01:51:52;15.43;;;4.90;;
21843;SDS011;11084;52.482;9.108;2023-01-01T01:54:21;14.40;;;4.60;;
21843;SDS011;11084;52.482;9.108;2023-01-01T01:56:54;15.17;;;3.93;;
21843;SDS011;11084;52.482;9.108;2023-01-01T01:59:23;10.73;;;4.60;;
21843;SDS011;11084;52.482;9.108;2023-01-01T02:01:55;13.17;;;4.93;;
21843;SDS011;11084;52.482;9.108;2023-01-01T02:04:21;16.13;;;4.70;;
21843;SDS011;11084;52.482;9.108;2023-01-01T02:06:48;19.03;;;4.60;;
21843;SDS011;11084;52.482;9.108;2023-01-01T02:09:16;11.53;;;4.40;;
21843;SDS011;11084;52.482;9.108;2023-01-01T02:11:43;17.93;;;4.93;;
21843;SDS011;11084;52.482;9.108;2023-01-01T02:14:09;10.30;;;4.60;;
21843;SDS011;11084;52.482;9.108;2023-01-01T02:16:36;12.67;;;4.37;;
21843;SDS011;11084;52.482;9.108;2023-01-01T02:31:20;19.83;;;4.60;;
21843;SDS011;11084;52.482;9.108;2023-01-01T02:34:03;13.33;;;4.77;;
21843;SDS011;11084;52.482;9.108;2023-01-01T02:36:33;11.83;;;4.27;;
21843;SDS011;11084;52.482;9.108;2023-01-01T02:39:04;10.73;;;4.50;;
21843;SDS011;11084;52.482;9.108;2023-01-01T02:41:35;14.67;;;4.23;;
21843;SDS011;11084;52.482;9.108;2023-01-01T02:44:05;10.40;;;4.07;;
21843;SDS011;11084;52.482;9.108;2023-01-01T02:46:33;13.43;;;5.20;;
21843;SDS011;11084;52.482;9.108;2023-01-01T02:49:01;13.00;;;4.57;;
21843;SDS011;11084;52.482;9.108;2023-01-01T02:51:34;13.20;;;4.50;;
21843;SDS011;11084;52.482;9.108;2023-01-01T03:00:07;14.87;;;4.33;;
21843;SDS011;11084;52.482;9.108;2023-01-01T03:11:46;13.83;;;3.90;;
21843;SDS011;11084;52.482;9.108;2023-01-01T03:17:32;10.77;;;3.70;;
21843;SDS011;11084;52.482;9.108;2023-01-01T03:20:09;10.10;;;3.80;;
21843;SDS011;11084;52.482;9.108;2023-01-01T03:22:43;11.03;;;4.00;;
21843;SDS011;11084;52.482;9.108;2023-01-01T03:25:16;13.60;;;3.80;;
21843;SDS011;11084;52.482;9.108;2023-01-01T03:27:52;16.17;;;3.47;;
21843;SDS011;11084;52.482;9.108;2023-01-01T03:30:24;8.77;;;3.73;;
21843;SDS011;11084;52.482;9.108;2023-01-01T03:35:25;10.17;;;3.70;;
21843;SDS011;11084;52.482;9.108;2023-01-01T03:40:49;10.70;;;3.77;;
21843;SDS011;11084;52.482;9.108;2023-01-01T03:43:30;15.23;;;3.90;;
21843;SDS011;11084;52.482;9.108;2023-01-01T03:46:18;11.50;;;3.00;;
21843;SDS011;11084;52.482;9.108;2023-01-01T03:48:53;9.13;;;3.30;;
21843;SDS011;11084;52.482;9.108;2023-01-01T03:54:40;13.37;;;3.07;;
21843;SDS011;11084;52.482;9.108;2023-01-01T04:00:12;9.30;;;2.90;;
21843;SDS011;11084;52.482;9.108;2023-01-01T04:02:55;15.70;;;2.63;;
21843;SDS011;11084;52.482;9.108;2023-01-01T04:05:39;9.13;;;2.90;;
21843;SDS011;11084;52.482;9.108;2023-01-01T04:08:06;6.87;;;2.57;;
21843;SDS011;11084;52.482;9.108;2023-01-01T04:10:36;9.23;;;2.73;;
21843;SDS011;11084;52.482;9.108;2023-01-01T04:13:07;4.73;;;2.47;;
21843;SDS011;11084;52.482;9.108;2023-01-01T04:15:33;7.07;;;2.20;;
21843;SDS011;11084;52.482;9.108;2023-01-01T04:18:01;5.20;;;2.37;;
21843;SDS011;11084;52.482;9.108;2023-01-01T04:20:28;9.80;;;2.40;;
21843;SDS011;11084;52.482;9.108;2023-01-01T04:22:55;10.40;;;2.37;;
21843;SDS011;11084;52.482;9.108;2023-01-01T04:25:25;8.57;;;2.40;;
21843;SDS011;11084;52.482;9.108;2023-01-01T04:27:52;11.10;;;2.70;;
21843;SDS011;11084;52.482;9.108;2023-01-01T04:30:19;10.50;;;2.30;;
21843;SDS011;11084;52.482;9.108;2023-01-01T04:32:45;8.60;;;1.90;;
21843;SDS011;11084;52.482;9.108;2023-01-01T04:35:12;6.43;;;2.67;;
21843;SDS011;11084;52.482;9.108;2023-01-01T04:37:40;13.40;;;2.20;;
21843;SDS011;11084;52.482;9.108;2023-01-01T04:40:08;7.10;;;2.07;;
21843;SDS011;11084;52.482;9.108;2023-01-01T04:42:35;4.77;;;1.87;;
21843;SDS011;11084;52.482;9.108;2023-01-01T04:45:04;3.60;;;1.37;;
21843;SDS011;11084;52.482;9.108;2023-01-01T04:47:31;9.40;;;1.97;;
21843;SDS011;11084;52.482;9.108;2023-01-01T04:49:57;10.03;;;1.47;;
21843;SDS011;11084;52.482;9.108;2023-01-01T04:52:24;6.80;;;2.03;;
21843;SDS011;11084;52.482;9.108;2023-01-01T04:54:51;3.87;;;1.67;;
21843;SDS011;11084;52.482;9.108;2023-01-01T04:57:18;8.87;;;1.63;;
21843;SDS011;11084;52.482;9.108;2023-01-01T04:59:44;8.03;;;1.87;;
21843;SDS011;11084;52.482;9.108;2023-01-01T05:02:10;3.67;;;1.50;;
21843;SDS011;11084;52.482;9.108;2023-01-01T05:04:37;6.17;;;1.50;;
21843;SDS011;11084;52.482;9.108;2023-01-01T05:07:03;7.27;;;1.77;;
21843;SDS011;11084;52.482;9.108;2023-01-01T05:09:29;2.87;;;1.63;;
21843;SDS011;11084;52.482;9.108;2023-01-01T05:11:57;4.30;;;1.43;;
21843;SDS011;11084;52.482;9.108;2023-01-01T05:14:25;5.47;;;1.60;;
21843;SDS011;11084;52.482;9.108;2023-01-01T05:16:51;13.07;;;1.50;;
21843;SDS011;11084;52.482;9.108;2023-01-01T05:19:17;2.97;;;1.10;;
21843;SDS011;11084;52.482;9.108;2023-01-01T05:21:44;6.67;;;1.43;;
21843;SDS011;11084;52.482;9.108;2023-01-01T05:24:10;2.03;;;1.20;;
21843;SDS011;11084;52.482;9.108;2023-01-01T05:26:38;4.80;;;1.23;;
21843;SDS011;11084;52.482;9.108;2023-01-01T05:29:07;5.37;;;1.80;;
21843;SDS011;11084;52.482;9.108;2023-01-01T05:31:34;4.07;;;1.30;;
21843;SDS011;11084;52.482;9.108;2023-01-01T05:34:01;3.73;;;1.00;;
21843;SDS011;11084;52.482;9.108;2023-01-01T05:36:30;11.47;;;1.50;;
21843;SDS011;11084;52.482;9.108;2023-01-01T05:39:02;1.83;;;1.03;;
21843;SDS011;11084;52.482;9.108;2023-01-01T05:41:29;1.93;;;1.03;;
21843;SDS011;11084;52.482;9.108;2023-01-01T05:44:00;5.93;;;1.70;;
21843;SDS011;11084;52.482;9.108;2023-01-01T05:46:27;7.10;;;1.47;;
21843;SDS011;11084;52.482;9.108;2023-01-01T05:48:53;9.00;;;1.70;;
21843;SDS011;11084;52.482;9.108;2023-01-01T05:51:21;2.30;;;1.10;;
21843;SDS011;11084;52.482;9.108;2023-01-01T05:53:50;5.00;;;1.10;;
21843;SDS011;11084;52.482;9.108;2023-01-01T05:56:20;14.60;;;1.53;;
21843;SDS011;11084;52.482;9.108;2023-01-01T05:58:49;2.17;;;1.10;;
21843;SDS011;11084;52.482;9.108;2023-01-01T06:03:47;3.73;;;1.53;;
21843;SDS011;11084;52.482;9.108;2023-01-01T06:06:18;3.73;;;1.33;;
21843;SDS011;11084;52.482;9.108;2023-01-01T06:09:05;1.33;;;0.70;;
21843;SDS011;11084;52.482;9.108;2023-01-01T06:11:31;3.93;;;0.90;;
21843;SDS011;11084;52.482;9.108;2023-01-01T06:13:58;3.97;;;1.10;;
21843;SDS011;11084;52.482;9.108;2023-01-01T06:16:25;6.37;;;1.17;;
21843;SDS011;11084;52.482;9.108;2023-01-01T06:18:52;6.20;;;0.90;;
21843;SDS011;11084;52.482;9.108;2023-01-01T06:21:19;7.50;;;1.33;;
21843;SDS011;11084;52.482;9.108;2023-01-01T06:23:48;5.77;;;1.20;;
21843;SDS011;11084;52.482;9.108;2023-01-01T06:26:19;8.23;;;1.20;;
21843;SDS011;11084;52.482;9.108;2023-01-01T06:28:50;1.80;;;1.00;;
21843;SDS011;11084;52.482;9.108;2023-01-01T06:31:18;7.33;;;1.17;;
21843;SDS011;11084;52.482;9.108;2023-01-01T06:33:45;1.97;;;1.00;;
21843;SDS011;11084;52.482;9.108;2023-01-01T06:36:12;6.97;;;1.20;;
21843;SDS011;11084;52.482;9.108;2023-01-01T06:38:42;5.13;;;1.27;;
21843;SDS011;11084;52.482;9.108;2023-01-01T06:41:11;2.90;;;1.03;;
21843;SDS011;11084;52.482;9.108;2023-01-01T06:43:39;7.10;;;1.33;;
21843;SDS011;11084;52.482;9.108;2023-01-01T06:46:08;7.47;;;1.33;;
21843;SDS011;11084;52.482;9.108;2023-01-01T06:48:46;3.93;;;1.07;;
21843;SDS011;11084;52.482;9.108;2023-01-01T06:51:18;5.07;;;0.90;;
21843;SDS011;11084;52.482;9.108;2023-01-01T06:53:46;3.17;;;0.80;;
21843;SDS011;11084;52.482;9.108;2023-01-01T06:56:13;3.80;;;1.07;;
21843;SDS011;11084;52.482;9.108;2023-01-01T06:58:40;2.37;;;0.93;;
21843;SDS011;11084;52.482;9.108;2023-01-01T07:01:08;2.40;;;0.90;;
21843;SDS011;11084;52.482;9.108;2023-01-01T07:03:36;4.63;;;1.17;;
21843;SDS011;11084;52.482;9.108;2023-01-01T07:06:03;3.20;;;1.00;;
21843;SDS011;11084;52.482;9.108;2023-01-01T07:08:30;1.20;;;0.83;;
21843;SDS011;11084;52.482;9.108;2023-01-01T07:10:56;3.17;;;1.13;;
21843;SDS011;11084;52.482;9.108;2023-01-01T07:13:26;3.33;;;1.23;;
21843;SDS011;11084;52.482;9.108;2023-01-01T07:15:54;7.40;;;1.20;;
21843;SDS011;11084;52.482;9.108;2023-01-01T07:18:21;2.87;;;1.10;;
21843;SDS011;11084;52.482;9.108;2023-01-01T07:20:52;3.23;;;1.13;;
21843;SDS011;11084;52.482;9.108;2023-01-01T07:23:24;7.90;;;1.27;;
21843;SDS011;11084;52.482;9.108;2023-01-01T07:25:52;6.43;;;0.90;;
21843;SDS011;11084;52.482;9.108;2023-01-01T07:28:19;5.60;;;1.57;;
21843;SDS011;11084;52.482;9.108;2023-01-01T07:30:47;7.77;;;1.07;;
21843;SDS011;11084;52.482;9.108;2023-01-01T07:33:17;2.07;;;1.00;;
21843;SDS011;11084;52.482;9.108;2023-01-01T07:35:46;4.93;;;0.90;;
21843;SDS011;11084;52.482;9.108;2023-01-01T07:38:14;1.77;;;1.17;;
21843;SDS011;11084;52.482;9.108;2023-01-01T07:40:41;7.20;;;0.97;;
21843;SDS011;11084;52.482;9.108;2023-01-01T07:43:07;6.30;;;1.43;;
21843;SDS011;11084;52.482;9.108;2023-01-01T07:45:34;1.40;;;0.90;;
21843;SDS011;11084;52.482;9.108;2023-01-01T07:48:00;2.80;;;0.80;;
21843;SDS011;11084;52.482;9.108;2023-01-01T07:50:28;3.40;;;1.20;;
21843;SDS011;11084;52.482;9.108;2023-01-01T07:52:56;4.40;;;0.97;;
21843;SDS011;11084;52.482;9.108;2023-01-01T07:55:22;11.23;;;1.50;;
21843;SDS011;11084;52.482;9.108;2023-01-01T07:57:48;2.33;;;1.13;;
21843;SDS011;11084;52.482;9.108;2023-01-01T08:00:16;3.07;;;1.10;;
21843;SDS011;11084;52.482;9.108;2023-01-01T08:02:46;2.77;;;0.90;;
21843;SDS011;11084;52.482;9.108;2023-01-01T08:05:12;3.93;;;0.87;;
21843;SDS011;11084;52.482;9.108;2023-01-01T08:07:43;11.40;;;1.50;;
21843;SDS011;11084;52.482;9.108;2023-01-01T08:10:14;8.57;;;1.20;;
21843;SDS011;11084;52.482;9.108;2023-01-01T08:12:42;9.50;;;1.27;;
21843;SDS011;11084;52.482;9.108;2023-01-01T08:15:08;4.23;;;1.00;;
21843;SDS011;11084;52.482;9.108;2023-01-01T08:17:36;3.27;;;1.20;;
21843;SDS011;11084;52.482;9.108;2023-01-01T08:20:02;5.23;;;0.90;;
21843;SDS011;11084;52.482;9.108;2023-01-01T08:22:29;5.97;;;1.10;;
21843;SDS011;11084;52.482;9.108;2023-01-01T08:24:56;4.00;;;1.30;;
21843;SDS011;11084;52.482;9.108;2023-01-01T08:27:21;4.07;;;1.40;;
21843;SDS011;11084;52.482;9.108;2023-01-01T08:29:51;3.10;;;1.20;;
21843;SDS011;11084;52.482;9.108;2023-01-01T08:32:17;1.80;;;0.93;;
21843;SDS011;11084;52.482;9.108;2023-01-01T08:34:43;6.53;;;1.10;;
21843;SDS011;11084;52.482;9.108;2023-01-01T08:37:12;6.07;;;1.27;;
21843;SDS011;11084;52.482;9.108;2023-01-01T08:39:39;5.00;;;1.27;;
21843;SDS011;11084;52.482;9.108;2023-01-01T08:42:05;5.27;;;1.37;;
21843;SDS011;11084;52.482;9.108;2023-01-01T08:44:31;4.80;;;1.20;;
21843;SDS011;11084;52.482;9.108;2023-01-01T08:46:57;1.60;;;0.90;;
21843;SDS011;11084;52.482;9.108;2023-01-01T08:49:24;4.87;;;1.37;;
21843;SDS011;11084;52.482;9.108;2023-01-01T08:51:49;3.83;;;1.30;;
21843;SDS011;11084;52.482;9.108;2023-01-01T08:54:15;5.73;;;1.43;;
21843;SDS011;11084;52.482;9.108;2023-01-01T08:56:41;3.23;;;1.40;;
21843;SDS011;11084;52.482;9.108;2023-01-01T08:59:08;4.80;;;1.30;;
21843;SDS011;11084;52.482;9.108;2023-01-01T09:01:34;6.90;;;1.00;;
21843;SDS011;11084;52.482;9.108;2023-01-01T09:04:00;6.30;;;1.40;;
21843;SDS011;11084;52.482;9.108;2023-01-01T09:06:26;4.20;;;1.13;;
21843;SDS011;11084;52.482;9.108;2023-01-01T09:08:52;3.97;;;1.40;;
21843;SDS011;11084;52.482;9.108;2023-01-01T09:11:20;5.40;;;1.47;;
21843;SDS011;11084;52.482;9.108;2023-01-01T09:13:55;2.10;;;1.40;;
21843;SDS011;11084;52.482;9.108;2023-01-01T09:16:22;4.90;;;1.17;;
21843;SDS011;11084;52.482;9.108;2023-01-01T09:18:48;7.10;;;1.10;;
21843;SDS011;11084;52.482;9.108;2023-01-01T09:21:14;5.30;;;0.93;;
21843;SDS011;11084;52.482;9.108;2023-01-01T09:23:41;6.43;;;1.30;;
21843;SDS011;11084;52.482;9.108;2023-01-01T09:26:08;2.77;;;1.33;;
21843;SDS011;11084;52.482;9.108;2023-01-01T09:28:35;4.03;;;1.40;;
21843;SDS011;11084;52.482;9.108;2023-01-01T09:31:03;3.43;;;1.63;;
21843;SDS011;11084;52.482;9.108;2023-01-01T09:33:31;3.57;;;1.53;;
21843;SDS011;11084;52.482;9.108;2023-01-01T09:36:11;7.47;;;1.43;;
21843;SDS011;11084;52.482;9.108;2023-01-01T09:38:57;1.10;;;0.80;;
21843;SDS011;11084;52.482;9.108;2023-01-01T09:50:00;1.37;;;0.90;;
21843;SDS011;11084;52.482;9.108;2023-01-01T09:52:45;7.67;;;2.13;;
21843;SDS011;11084;52.482;9.108;2023-01-01T09:58:16;5.03;;;2.10;;
21843;SDS011;11084;52.482;9.108;2023-01-01T10:00:52;4.37;;;1.60;;
21843;SDS011;11084;52.482;9.108;2023-01-01T10:06:12;11.83;;;2.83;;
21843;SDS011;11084;52.482;9.108;2023-01-01T10:09:01;13.43;;;4.30;;
21843;SDS011;11084;52.482;9.108;2023-01-01T10:12:00;4.53;;;1.80;;
21843;SDS011;11084;52.482;9.108;2023-01-01T10:14:38;10.20;;;1.43;;
21843;SDS011;11084;52.482;9.108;2023-01-01T10:17:22;2.30;;;1.03;;
21843;SDS011;11084;52.482;9.108;2023-01-01T10:20:03;5.50;;;1.43;;
21843;SDS011;11084;52.482;9.108;2023-01-01T10:23:02;4.43;;;1.10;;
21843;SDS011;11084;52.482;9.108;2023-01-01T10:25:43;5.40;;;0.90;;
21843;SDS011;11084;52.482;9.108;2023-01-01T10:30:52;5.33;;;0.83;;
21843;SDS011;11084;52.482;9.108;2023-01-01T10:33:43;1.07;;;0.60;;
21843;SDS011;11084;52.482;9.108;2023-01-01T10:36:11;1.33;;;1.10;;
21843;SDS011;11084;52.482;9.108;2023-01-01T10:38:41;3.30;;;0.73;;
21843;SDS011;11084;52.482;9.108;2023-01-01T10:41:08;1.63;;;0.70;;
21843;SDS011;11084;52.482;9.108;2023-01-01T10:43:36;3.70;;;0.90;;
21843;SDS011;11084;52.482;9.108;2023-01-01T10:46:03;2.93;;;0.80;;
21843;SDS011;11084;52.482;9.108;2023-01-01T10:48:32;1.07;;;0.70;;
21843;SDS011;11084;52.482;9.108;2023-01-01T10:51:04;2.03;;;0.97;;
21843;SDS011;11084;52.482;9.108;2023-01-01T10:53:50;3.30;;;0.90;;
21843;SDS011;11084;52.482;9.108;2023-01-01T10:56:23;4.40;;;1.30;;
21843;SDS011;11084;52.482;9.108;2023-01-01T10:58:50;5.53;;;1.43;;
21843;SDS011;11084;52.482;9.108;2023-01-01T11:01:28;6.90;;;1.37;;
21843;SDS011;11084;52.482;9.108;2023-01-01T11:06:41;3.80;;;1.37;;
21843;SDS011;11084;52.482;9.108;2023-01-01T11:09:19;2.37;;;1.10;;
21843;SDS011;11084;52.482;9.108;2023-01-01T11:11:55;6.73;;;1.60;;
21843;SDS011;11084;52.482;9.108;2023-01-01T11:14:28;2.53;;;1.20;;
21843;SDS011;11084;52.482;9.108;2023-01-01T11:16:59;2.60;;;1.50;;
21843;SDS011;11084;52.482;9.108;2023-01-01T11:22:00;4.23;;;1.57;;
21843;SDS011;11084;52.482;9.108;2023-01-01T11:24:29;5.80;;;1.70;;
21843;SDS011;11084;52.482;9.108;2023-01-01T11:29:43;7.83;;;1.43;;
21843;SDS011;11084;52.482;9.108;2023-01-01T11:32:11;1.40;;;0.90;;
21843;SDS011;11084;52.482;9.108;2023-01-01T11:34:45;4.90;;;1.17;;
21843;SDS011;11084;52.482;9.108;2023-01-01T11:37:28;8.70;;;1.10;;
21843;SDS011;11084;52.482;9.108;2023-01-01T11:40:02;4.20;;;0.80;;
21843;SDS011;11084;52.482;9.108;2023-01-01T11:42:34;6.93;;;1.23;;
21843;SDS011;11084;52.482;9.108;2023-01-01T11:45:07;4.77;;;0.90;;
21843;SDS011;11084;52.482;9.108;2023-01-01T11:47:43;4.37;;;1.43;;
21843;SDS011;11084;52.482;9.108;2023-01-01T12:07:22;1.53;;;0.83;;
21843;SDS011;11084;52.482;9.108;2023-01-01T12:13:01;7.17;;;1.30;;
21843;SDS011;11084;52.482;9.108;2023-01-01T12:15:36;9.57;;;1.43;;
21843;SDS011;11084;52.482;9.108;2023-01-01T12:18:40;1.80;;;1.13;;
21843;SDS011;11084;52.482;9.108;2023-01-01T12:21:18;3.93;;;1.00;;
21843;SDS011;11084;52.482;9.108;2023-01-01T12:23:50;1.27;;;0.83;;
21843;SDS011;11084;52.482;9.108;2023-01-01T12:29:34;7.67;;;1.40;;
21843;SDS011;11084;52.482;9.108;2023-01-01T12:37:55;5.90;;;1.17;;
21843;SDS011;11084;52.482;9.108;2023-01-01T12:40:59;2.87;;;1.07;;
21843;SDS011;11084;52.482;9.108;2023-01-01T12:49:42;6.60;;;0.83;;
21843;SDS011;11084;52.482;9.108;2023-01-01T12:55:21;2.03;;;1.03;;
21843;SDS011;11084;52.482;9.108;2023-01-01T12:58:10;3.20;;;1.00;;
21843;SDS011;11084;52.482;9.108;2023-01-01T13:00:46;1.00;;;0.87;;
21843;SDS011;11084;52.482;9.108;2023-01-01T13:03:47;2.23;;;0.87;;
21843;SDS011;11084;52.482;9.108;2023-01-01T13:06:24;2.80;;;1.07;;
21843;SDS011;11084;52.482;9.108;2023-01-01T13:09:04;4.23;;;1.33;;
21843;SDS011;11084;52.482;9.108;2023-01-01T13:11:38;5.87;;;0.70;;
21843;SDS011;11084;52.482;9.108;2023-01-01T13:14:06;4.97;;;1.17;;
21843;SDS011;11084;52.482;9.108;2023-01-01T13:16:33;6.00;;;1.00;;
21843;SDS011;11084;52.482;9.108;2023-01-01T13:19:06;2.60;;;0.90;;
21843;SDS011;11084;52.482;9.108;2023-01-01T13:33:16;5.53;;;1.30;;
21843;SDS011;11084;52.482;9.108;2023-01-01T13:52:37;2.00;;;1.17;;
21843;SDS011;11084;52.482;9.108;2023-01-01T14:01:49;3.53;;;1.97;;
21843;SDS011;11084;52.482;9.108;2023-01-01T14:12:49;4.57;;;1.97;;
21843;SDS011;11084;52.482;9.108;2023-01-01T14:15:30;7.27;;;1.80;;
21843;SDS011;11084;52.482;9.108;2023-01-01T14:18:12;8.57;;;2.10;;
21843;SDS011;11084;52.482;9.108;2023-01-01T14:20:44;4.20;;;2.00;;
21843;SDS011;11084;52.482;9.108;2023-01-01T14:23:23;6.77;;;2.30;;
21843;SDS011;11084;52.482;9.108;2023-01-01T14:25:56;3.80;;;2.30;;
21843;SDS011;11084;52.482;9.108;2023-01-01T14:28:28;6.83;;;2.10;;
21843;SDS011;11084;52.482;9.108;2023-01-01T14:30:57;4.17;;;2.27;;
21843;SDS011;11084;52.482;9.108;2023-01-01T14:33:45;5.50;;;2.17;;
21843;SDS011;11084;52.482;9.108;2023-01-01T14:38:56;2.97;;;1.80;;
21843;SDS011;11084;52.482;9.108;2023-01-01T14:41:31;3.73;;;2.43;;
21843;SDS011;11084;52.482;9.108;2023-01-01T14:44:09;4.60;;;2.07;;
21843;SDS011;11084;52.482;9.108;2023-01-01T14:46:42;4.63;;;2.40;;
21843;SDS011;11084;52.482;9.108;2023-01-01T14:49:17;6.57;;;2.23;;
21843;SDS011;11084;52.482;9.108;2023-01-01T14:52:00;3.43;;;2.23;;
21843;SDS011;11084;52.482;9.108;2023-01-01T14:54:33;5.50;;;2.97;;
21843;SDS011;11084;52.482;9.108;2023-01-01T14:57:02;5.33;;;1.90;;
21843;SDS011;11084;52.482;9.108;2023-01-01T14:59:46;9.20;;;2.10;;
21843;SDS011;11084;52.482;9.108;2023-01-01T15:02:26;9.00;;;1.80;;
21843;SDS011;11084;52.482;9.108;2023-01-01T15:04:57;8.53;;;1.83;;
21843;SDS011;11084;52.482;9.108;2023-01-01T15:07:56;4.70;;;1.97;;
21843;SDS011;11084;52.482;9.108;2023-01-01T15:10:24;14.27;;;2.40;;
21843;SDS011;11084;52.482;9.108;2023-01-01T15:12:52;6.53;;;2.50;;
21843;SDS011;11084;52.482;9.108;2023-01-01T15:18:33;7.30;;;2.57;;
21843;SDS011;11084;52.482;9.108;2023-01-01T15:21:30;4.20;;;2.63;;
21843;SDS011;11084;52.482;9.108;2023-01-01T15:24:00;7.07;;;2.63;;
21843;SDS011;11084;52.482;9.108;2023-01-01T15:26:59;13.20;;;2.70;;
21843;SDS011;11084;52.482;9.108;2023-01-01T15:29:29;8.67;;;2.80;;
21843;SDS011;11084;52.482;9.108;2023-01-01T15:32:12;8.93;;;2.43;;
21843;SDS011;11084;52.482;9.108;2023-01-01T15:34:49;9.07;;;2.20;;
21843;SDS011;11084;52.482;9.108;2023-01-01T15:37:19;3.67;;;1.63;;
21843;SDS011;11084;52.482;9.108;2023-01-01T15:42:41;9.37;;;2.07;;
21843;SDS011;11084;52.482;9.108;2023-01-01T15:50:26;7.43;;;1.80;;
21843;SDS011;11084;52.482;9.108;2023-01-01T15:53:27;5.83;;;1.97;;
21843;SDS011;11084;52.482;9.108;2023-01-01T15:56:02;7.70;;;2.30;;
21843;SDS011;11084;52.482;9.108;2023-01-01T15:58:35;6.73;;;2.20;;
21843;SDS011;11084;52.482;9.108;2023-01-01T16:01:07;6.83;;;2.03;;
21843;SDS011;11084;52.482;9.108;2023-01-01T16:03:39;4.90;;;2.23;;
21843;SDS011;11084;52.482;9.108;2023-01-01T16:06:06;7.77;;;2.37;;
21843;SDS011;11084;52.482;9.108;2023-01-01T16:08:39;11.33;;;2.40;;
21843;SDS011;11084;52.482;9.108;2023-01-01T16:11:06;12.30;;;2.07;;
21843;SDS011;11084;52.482;9.108;2023-01-01T16:13:32;5.47;;;2.53;;
21843;SDS011;11084;52.482;9.108;2023-01-01T16:15:58;14.40;;;2.93;;
21843;SDS011;11084;52.482;9.108;2023-01-01T16:18:30;5.27;;;2.17;;
21843;SDS011;11084;52.482;9.108;2023-01-01T16:20:59;9.57;;;2.50;;
21843;SDS011;11084;52.482;9.108;2023-01-01T16:23:27;5.57;;;2.17;;
21843;SDS011;11084;52.482;9.108;2023-01-01T16:25:53;12.80;;;2.53;;
21843;SDS011;11084;52.482;9.108;2023-01-01T16:28:20;13.30;;;2.60;;
21843;SDS011;11084;52.482;9.108;2023-01-01T16:30:47;7.00;;;2.53;;
21843;SDS011;11084;52.482;9.108;2023-01-01T16:33:18;7.43;;;2.10;;
21843;SDS011;11084;52.482;9.108;2023-01-01T16:35:47;6.13;;;2.20;;
21843;SDS011;11084;52.482;9.108;2023-01-01T16:38:15;6.93;;;2.33;;
21843;SDS011;11084;52.482;9.108;2023-01-01T16:40:41;8.80;;;2.00;;
21843;SDS011;11084;52.482;9.108;2023-01-01T16:43:11;6.80;;;1.93;;
21843;SDS011;11084;52.482;9.108;2023-01-01T16:45:41;4.97;;;2.27;;
21843;SDS011;11084;52.482;9.108;2023-01-01T16:48:08;3.43;;;1.83;;
21843;SDS011;11084;52.482;9.108;2023-01-01T16:50:34;9.87;;;2.60;;
21843;SDS011;11084;52.482;9.108;2023-01-01T16:53:02;12.30;;;1.97;;
21843;SDS011;11084;52.482;9.108;2023-01-01T16:55:28;7.13;;;2.23;;
21843;SDS011;11084;52.482;9.108;2023-01-01T16:57:54;10.10;;;2.67;;
21843;SDS011;11084;52.482;9.108;2023-01-01T17:00:24;10.77;;;3.33;;
21843;SDS011;11084;52.482;9.108;2023-01-01T17:02:51;4.90;;;2.13;;
21843;SDS011;11084;52.482;9.108;2023-01-01T17:05:20;9.23;;;2.60;;
21843;SDS011;11084;52.482;9.108;2023-01-01T17:07:46;4.60;;;2.70;;
21843;SDS011;11084;52.482;9.108;2023-01-01T17:10:12;9.17;;;3.00;;
21843;SDS011;11084;52.482;9.108;2023-01-01T17:12:40;5.97;;;2.17;;
21843;SDS011;11084;52.482;9.108;2023-01-01T17:15:06;8.57;;;2.13;;
21843;SDS011;11084;52.482;9.108;2023-01-01T17:17:34;9.87;;;2.70;;
21843;SDS011;11084;52.482;9.108;2023-01-01T17:20:02;8.73;;;2.30;;
21843;SDS011;11084;52.482;9.108;2023-01-01T17:22:28;8.13;;;1.83;;
21843;SDS011;11084;52.482;9.108;2023-01-01T17:24:55;9.23;;;2.47;;
21843;SDS011;11084;52.482;9.108;2023-01-01T17:27:21;6.53;;;2.40;;
21843;SDS011;11084;52.482;9.108;2023-01-01T17:29:50;12.60;;;3.00;;
21843;SDS011;11084;52.482;9.108;2023-01-01T17:32:18;5.00;;;1.93;;
21843;SDS011;11084;52.482;9.108;2023-01-01T17:34:44;6.63;;;2.50;;
21843;SDS011;11084;52.482;9.108;2023-01-01T17:37:11;10.20;;;2.40;;
21843;SDS011;11084;52.482;9.108;2023-01-01T17:39:37;7.33;;;2.47;;
21843;SDS011;11084;52.482;9.108;2023-01-01T17:42:03;5.37;;;2.07;;
21843;SDS011;11084;52.482;9.108;2023-01-01T17:44:29;12.43;;;2.20;;
21843;SDS011;11084;52.482;9.108;2023-01-01T17:46:57;5.73;;;2.27;;
21843;SDS011;11084;52.482;9.108;2023-01-01T17:49:23;9.43;;;2.63;;
21843;SDS011;11084;52.482;9.108;2023-01-01T17:51:49;10.13;;;3.30;;
21843;SDS011;11084;52.482;9.108;2023-01-01T17:54:16;17.40;;;4.13;;
21843;SDS011;11084;52.482;9.108;2023-01-01T17:56:42;13.13;;;3.33;;